createdAt,value
2022-09-18T00:01:12.490Z,98938.72
2022-09-18T00:03:41.109Z,98955.25
2022-09-18T00:06:11.322Z,98952.44
2022-09-18T00:08:39.901Z,98956.84
2022-09-18T00:11:10.376Z,98946.66
2022-09-18T00:13:39.526Z,98955.72
2022-09-18T00:16:09.904Z,98947.91
2022-09-18T00:18:39.417Z,98946.19
2022-09-18T00:21:08.630Z,98950.31
2022-09-18T00:23:36.697Z,98951.13
2022-09-18T00:26:05.257Z,98958.31
2022-09-18T00:28:33.518Z,98966.09
2022-09-18T00:31:05.898Z,98966.97
2022-09-18T00:33:34.222Z,98986.38
2022-09-18T00:36:04.982Z,98993.22
2022-09-18T00:38:33.652Z,99014.81
2022-09-18T00:41:02.557Z,99029.69
2022-09-18T00:43:34.173Z,99036.50
2022-09-18T00:46:05.344Z,99053.75
2022-09-18T00:48:41.849Z,99066.53
2022-09-18T00:51:11.433Z,99063.78
2022-09-18T00:53:43.762Z,99033.56
2022-09-18T00:56:14.307Z,99084.72
2022-09-18T00:58:42.981Z,99087.63
2022-09-18T01:01:11.423Z,99092.19
2022-09-18T01:03:39.697Z,99105.81
2022-09-18T01:06:16.598Z,99100.63
2022-09-18T01:08:56.008Z,99117.06
2022-09-18T01:11:42.876Z,99107.31
2022-09-18T01:14:25.474Z,99119.59
2022-09-18T01:17:00.021Z,99117.34
2022-09-18T01:19:44.345Z,99149.94
2022-09-18T01:22:26.671Z,99146.84
2022-09-18T01:25:06.490Z,99160.31
2022-09-18T01:27:40.935Z,99177.66
2022-09-18T01:30:13.270Z,99189.66
2022-09-18T01:32:45.270Z,99186.22
2022-09-18T01:35:40.136Z,99206.78
2022-09-18T01:38:12.745Z,99210.63
2022-09-18T01:40:47.376Z,99219.09
2022-09-18T01:43:19.149Z,99233.19
2022-09-18T01:45:51.749Z,99242.50
2022-09-18T01:48:29.501Z,99242.69
2022-09-18T01:51:01.185Z,99243.03
2022-09-18T01:53:33.599Z,99249.94
2022-09-18T01:56:07.625Z,99270.63
2022-09-18T01:58:36.510Z,99283.09
2022-09-18T02:01:13.213Z,99280.19
2022-09-18T02:03:46.306Z,99293.50
2022-09-18T02:06:18.277Z,99289.59
2022-09-18T02:08:49.035Z,99271.03
2022-09-18T02:11:18.906Z,99291.41
2022-09-18T02:13:51.208Z,99299.44
2022-09-18T02:16:26.681Z,99316.69
2022-09-18T02:18:58.607Z,99316.63
2022-09-18T02:21:31.755Z,99318.97
2022-09-18T02:24:04.681Z,99310.38
2022-09-18T02:26:35.098Z,99323.53
2022-09-18T02:29:04.448Z,99320.56
2022-09-18T02:31:34.449Z,99324.63
2022-09-18T02:34:02.949Z,99313.72
2022-09-18T02:36:46.532Z,99329.44
2022-09-18T02:39:28.361Z,99331.09
2022-09-18T02:42:03.989Z,99342.84
2022-09-18T02:44:43.537Z,99342.78
2022-09-18T02:47:27.586Z,99339.63
2022-09-18T02:50:05.397Z,99366.72
2022-09-18T02:52:41.465Z,99373.66
2022-09-18T02:55:16.990Z,99399.25
2022-09-18T02:57:50.644Z,99403.44
2022-09-18T03:00:19.968Z,99428.19
2022-09-18T03:02:51.283Z,99409.63
2022-09-18T03:05:19.583Z,99444.00
2022-09-18T03:07:47.491Z,99455.56
2022-09-18T03:10:15.405Z,99467.75
2022-09-18T03:12:43.386Z,99460.81
2022-09-18T03:15:12.222Z,99476.91
2022-09-18T03:17:40.125Z,99488.66
2022-09-18T03:20:10.184Z,99491.25
2022-09-18T03:22:38.078Z,99491.34
2022-09-18T03:25:06.929Z,99507.34
2022-09-18T03:27:34.853Z,99516.41
2022-09-18T03:30:02.746Z,99519.91
2022-09-18T03:32:30.657Z,99546.53
2022-09-18T03:34:58.559Z,99555.53
2022-09-18T03:37:27.846Z,99577.50
2022-09-18T03:39:55.800Z,99578.47
2022-09-18T03:42:23.859Z,99585.41
2022-09-18T03:44:51.772Z,99591.47
2022-09-18T03:47:19.721Z,99577.41
2022-09-18T03:49:47.622Z,99602.69
2022-09-18T03:52:15.529Z,99606.03
2022-09-18T03:54:44.984Z,99601.13
2022-09-18T03:57:12.910Z,99610.16
2022-09-18T03:59:40.810Z,99623.94
2022-09-18T04:02:08.771Z,99620.88
2022-09-18T04:04:36.758Z,99606.97
2022-09-18T04:07:04.810Z,99617.34
2022-09-18T04:09:32.709Z,99618.84
2022-09-18T04:12:02.237Z,99607.84
2022-09-18T04:14:30.496Z,99623.00
2022-09-18T04:16:58.477Z,99621.34
2022-09-18T04:19:26.446Z,99612.50
2022-09-18T04:21:54.356Z,99625.31
2022-09-18T04:24:22.247Z,99640.63
2022-09-18T04:26:50.455Z,99667.84
2022-09-18T04:29:19.749Z,99666.47
2022-09-18T04:31:47.733Z,99661.53
2022-09-18T04:34:18.303Z,99667.28
2022-09-18T04:36:46.251Z,99661.66
2022-09-18T04:39:14.206Z,99667.03
2022-09-18T04:41:42.317Z,99681.44
2022-09-18T04:44:10.226Z,99684.88
2022-09-18T04:46:39.588Z,99691.72
2022-09-18T04:49:07.618Z,99689.00
2022-09-18T04:51:35.608Z,99691.47
2022-09-18T04:54:03.569Z,99684.47
2022-09-18T04:56:31.494Z,99696.97
2022-09-18T04:59:00.069Z,99700.03
2022-09-18T05:01:28.057Z,99696.00
2022-09-18T05:03:57.362Z,99705.50
2022-09-18T05:06:25.462Z,99711.31
2022-09-18T05:08:53.410Z,99707.03
2022-09-18T05:11:21.482Z,99700.59
2022-09-18T05:13:49.802Z,99702.78
2022-09-18T05:16:17.965Z,99692.31
2022-09-18T05:18:45.930Z,99685.16
2022-09-18T05:21:15.242Z,99695.38
2022-09-18T05:23:45.228Z,99697.53
2022-09-18T05:26:13.463Z,99724.50
2022-09-18T05:28:41.537Z,99714.34
2022-09-18T05:31:09.711Z,99729.47
2022-09-18T05:33:38.846Z,99731.94
2022-09-18T05:36:07.244Z,99736.88
2022-09-18T05:38:36.556Z,99723.28
2022-09-18T05:41:05.134Z,99737.59
2022-09-18T05:43:33.186Z,99744.94
2022-09-18T05:46:02.344Z,99735.28
2022-09-18T05:48:31.199Z,99736.09
2022-09-18T05:50:59.162Z,99745.25
2022-09-18T05:53:27.111Z,99738.06
2022-09-18T05:55:56.463Z,99742.75
2022-09-18T05:58:24.758Z,99740.00
2022-09-18T06:00:52.897Z,99740.13
2022-09-18T06:03:20.895Z,99754.13
2022-09-18T06:05:54.050Z,99734.50
2022-09-18T06:08:22.750Z,99739.16
2022-09-18T06:10:50.970Z,99751.38
2022-09-18T06:13:20.294Z,99749.19
2022-09-18T06:15:50.506Z,99768.06
2022-09-18T06:18:18.486Z,99749.50
2022-09-18T06:20:54.471Z,99753.63
2022-09-18T06:23:23.572Z,99759.09
2022-09-18T06:25:58.409Z,99777.00
2022-09-18T06:28:27.884Z,99759.47
2022-09-18T06:30:55.888Z,99762.28
2022-09-18T06:33:23.821Z,99760.53
2022-09-18T06:35:51.982Z,99785.00
2022-09-18T06:38:19.930Z,99783.19
2022-09-18T06:40:51.502Z,99783.53
2022-09-18T06:43:19.923Z,99799.13
2022-09-18T06:45:53.861Z,99803.28
2022-09-18T06:48:23.690Z,99812.00
2022-09-18T06:50:55.326Z,99809.16
2022-09-18T06:53:23.837Z,99800.41
2022-09-18T06:55:52.029Z,99809.00
2022-09-18T06:58:21.527Z,99797.91
2022-09-18T07:00:49.495Z,99803.97
2022-09-18T07:03:18.830Z,99809.59
2022-09-18T07:05:46.835Z,99813.03
2022-09-18T07:08:14.980Z,99813.16
2022-09-18T07:10:42.941Z,99814.16
2022-09-18T07:13:10.926Z,99825.03
2022-09-18T07:15:38.853Z,99828.50
2022-09-18T07:18:08.173Z,99818.66
2022-09-18T07:20:37.487Z,99822.56
2022-09-18T07:23:05.505Z,99820.22
2022-09-18T07:25:34.553Z,99811.13
2022-09-18T07:28:08.064Z,99812.41
2022-09-18T07:30:36.549Z,99815.88
2022-09-18T07:33:06.501Z,99831.22
2022-09-18T07:35:35.008Z,99832.69
2022-09-18T07:38:07.366Z,99838.63
2022-09-18T07:40:35.553Z,99799.63
2022-09-18T07:43:05.822Z,99854.59
2022-09-18T07:45:34.045Z,99846.69
2022-09-18T07:48:03.165Z,99828.56
2022-09-18T07:50:31.189Z,99831.66
2022-09-18T07:53:02.269Z,99835.81
2022-09-18T07:55:31.571Z,99829.84
2022-09-18T07:58:01.423Z,99836.09
2022-09-18T08:00:31.302Z,99848.88
2022-09-18T08:03:03.494Z,99827.91
2022-09-18T08:05:32.150Z,99853.75
2022-09-18T08:08:04.388Z,99850.78
2022-09-18T08:10:34.518Z,99851.72
2022-09-18T08:13:03.801Z,99853.09
2022-09-18T08:15:31.865Z,99850.28
2022-09-18T08:18:00.001Z,99842.16
2022-09-18T08:20:28.086Z,99824.59
2022-09-18T08:22:56.027Z,99832.00
2022-09-18T08:25:24.002Z,99844.34
2022-09-18T08:27:53.318Z,99826.94
2022-09-18T08:30:21.480Z,99832.03
2022-09-18T08:32:49.501Z,99831.63
2022-09-18T08:35:17.545Z,99846.50
2022-09-18T08:37:48.994Z,99844.34
2022-09-18T08:40:19.789Z,99846.28
2022-09-18T08:43:03.052Z,99876.94
2022-09-18T08:45:46.165Z,99856.81
2022-09-18T08:48:18.362Z,99865.25
2022-09-18T08:50:58.144Z,99862.41
2022-09-18T08:53:32.622Z,99854.97
2022-09-18T08:56:02.669Z,99853.81
2022-09-18T08:58:38.926Z,99847.34
2022-09-18T09:01:10.557Z,99861.00
2022-09-18T09:03:50.974Z,99849.72
2022-09-18T09:06:31.798Z,99860.34
2022-09-18T09:09:16.882Z,99855.88
2022-09-18T09:11:55.028Z,99855.19
2022-09-18T09:14:55.489Z,99858.72
2022-09-18T09:17:34.338Z,99870.41
2022-09-18T09:20:12.794Z,99876.38
2022-09-18T09:22:48.338Z,99867.91
2022-09-18T09:25:22.314Z,99882.59
2022-09-18T09:27:59.538Z,99890.59
2022-09-18T09:30:32.145Z,99876.00
2022-09-18T09:33:08.673Z,99873.25
2022-09-18T09:35:42.726Z,99843.81
2022-09-18T09:38:31.055Z,99861.50
2022-09-18T09:41:02.058Z,99877.78
2022-09-18T09:43:36.159Z,99871.88
2022-09-18T09:46:18.121Z,99878.03
2022-09-18T09:48:54.916Z,99888.94
2022-09-18T09:51:26.933Z,99891.13
2022-09-18T09:53:56.066Z,99895.22
2022-09-18T09:56:32.146Z,99894.81
2022-09-18T09:59:08.625Z,99888.59
2022-09-18T10:01:44.761Z,99892.47
2022-09-18T10:04:25.627Z,99889.66
2022-09-18T10:06:58.549Z,99892.81
2022-09-18T10:09:36.595Z,99902.31
2022-09-18T10:12:11.339Z,99902.31
2022-09-18T10:14:42.218Z,99891.28
2022-09-18T10:17:14.068Z,99884.44
2022-09-18T10:19:44.618Z,99883.28
2022-09-18T10:22:17.018Z,99879.91
2022-09-18T10:24:54.787Z,99888.00
2022-09-18T10:27:22.843Z,99890.81
2022-09-18T10:29:50.864Z,99890.56
2022-09-18T10:32:36.499Z,99892.59
2022-09-18T10:35:34.969Z,99903.38
2022-09-18T10:38:03.007Z,99897.19
2022-09-18T10:40:34.070Z,99902.59
2022-09-18T10:43:03.594Z,99889.75
2022-09-18T10:45:36.468Z,99907.63
2022-09-18T10:48:08.189Z,99905.53
2022-09-18T10:50:37.486Z,99903.69
2022-09-18T10:53:22.989Z,99912.75
2022-09-18T10:55:55.771Z,99912.09
2022-09-18T10:58:29.609Z,99928.03
2022-09-18T11:01:02.623Z,99925.41
2022-09-18T11:03:43.165Z,99922.47
2022-09-18T11:06:18.036Z,99916.53
2022-09-18T11:08:49.838Z,99923.34
2022-09-18T11:11:25.283Z,99910.00
2022-09-18T11:13:58.171Z,99920.06
2022-09-18T11:16:29.751Z,99898.44
2022-09-18T11:19:17.042Z,99928.41
2022-09-18T11:21:46.815Z,99920.97
2022-09-18T11:24:25.287Z,99926.25
2022-09-18T11:26:54.790Z,99906.31
2022-09-18T11:29:31.855Z,99924.88
2022-09-18T11:32:17.565Z,99894.38
2022-09-18T11:34:51.201Z,99924.44
2022-09-18T11:37:25.875Z,99920.53
2022-09-18T11:40:05.136Z,99936.56
2022-09-18T11:42:33.269Z,99922.03
2022-09-18T11:45:12.779Z,99935.66
2022-09-18T11:47:46.250Z,99935.63
2022-09-18T11:50:20.406Z,99955.97
2022-09-18T11:52:52.963Z,99948.88
2022-09-18T11:55:32.326Z,99959.97
2022-09-18T11:58:04.256Z,99949.28
2022-09-18T12:00:38.474Z,99959.63
2022-09-18T12:03:17.035Z,99973.00
2022-09-18T12:05:54.137Z,99967.47
2022-09-18T12:08:28.327Z,99977.72
2022-09-18T12:11:06.518Z,99988.16
2022-09-18T12:13:45.438Z,99980.47
2022-09-18T12:16:21.331Z,99990.06
2022-09-18T12:18:57.848Z,99986.28
2022-09-18T12:21:37.709Z,99987.56
2022-09-18T12:24:13.223Z,99966.06
2022-09-18T12:26:49.657Z,99998.72
2022-09-18T12:29:29.419Z,99984.84
2022-09-18T12:32:08.775Z,99975.16
2022-09-18T12:34:44.407Z,99989.03
2022-09-18T12:37:28.618Z,99964.44
2022-09-18T12:40:16.598Z,99983.19
2022-09-18T12:42:57.204Z,99990.53
2022-09-18T12:45:44.839Z,100010.00
2022-09-18T12:48:32.737Z,99988.91
2022-09-18T12:51:17.451Z,100001.72
2022-09-18T12:54:06.752Z,99995.34
2022-09-18T12:56:58.254Z,100007.38
2022-09-18T12:59:40.907Z,100007.38
2022-09-18T13:02:23.102Z,100015.59
2022-09-18T13:04:56.089Z,100017.28
2022-09-18T13:07:29.554Z,100013.66
2022-09-18T13:10:07.856Z,100001.44
2022-09-18T13:12:41.962Z,100018.91
2022-09-18T13:15:18.042Z,100028.16
2022-09-18T13:17:51.823Z,100023.72
2022-09-18T13:20:26.422Z,100029.13
2022-09-18T13:22:55.733Z,100032.72
2022-09-18T13:25:29.880Z,100028.28
2022-09-18T13:27:59.863Z,100040.59
2022-09-18T13:30:29.443Z,100029.75
2022-09-18T13:32:58.556Z,100047.19
2022-09-18T13:35:30.096Z,100040.91
2022-09-18T13:38:07.566Z,100024.63
2022-09-18T13:40:39.534Z,100053.44
2022-09-18T13:43:41.582Z,100053.44
2022-09-18T13:46:11.276Z,100052.63
2022-09-18T13:48:46.585Z,100035.63
2022-09-18T13:51:22.124Z,100062.94
2022-09-18T13:54:17.226Z,100065.28
2022-09-18T13:57:22.311Z,100073.97
2022-09-18T13:59:55.872Z,100071.69
2022-09-18T14:02:31.058Z,100072.09
2022-09-18T14:05:31.449Z,100079.19
2022-09-18T14:08:11.489Z,100087.56
2022-09-18T14:11:13.993Z,100068.09
2022-09-18T14:13:51.471Z,100084.53
2022-09-18T14:16:32.082Z,100086.47
2022-09-18T14:19:05.562Z,100083.84
2022-09-18T14:21:40.309Z,100084.13
2022-09-18T14:24:36.964Z,100076.63
2022-09-18T14:27:34.573Z,100098.94
2022-09-18T14:30:14.614Z,100095.13
2022-09-18T14:32:47.994Z,100103.25
2022-09-18T14:35:33.485Z,100120.06
2022-09-18T14:38:01.537Z,100132.47
2022-09-18T14:40:31.747Z,100132.19
2022-09-18T14:42:59.783Z,100124.44
2022-09-18T14:45:31.634Z,100138.75
2022-09-18T14:48:00.370Z,100126.88
2022-09-18T14:50:35.099Z,100130.28
2022-09-18T14:53:20.114Z,100129.16
2022-09-18T14:55:53.718Z,100145.13
2022-09-18T14:58:23.680Z,100131.16
2022-09-18T15:00:56.852Z,100154.28
2022-09-18T15:03:29.252Z,100160.00
2022-09-18T15:06:06.777Z,100151.34
2022-09-18T15:08:34.969Z,100152.78
2022-09-18T15:11:03.116Z,100167.44
2022-09-18T15:13:37.851Z,100164.44
2022-09-18T15:16:07.681Z,100165.25
2022-09-18T15:18:41.876Z,100168.94
2022-09-18T15:21:22.493Z,100177.97
2022-09-18T15:23:50.863Z,100183.50
2022-09-18T15:26:20.145Z,100178.63
2022-09-18T15:28:51.598Z,100178.16
2022-09-18T15:31:23.402Z,100187.81
2022-09-18T15:33:57.414Z,100189.56
2022-09-18T15:36:28.657Z,100182.47
2022-09-18T15:38:58.335Z,100183.38
2022-09-18T15:41:41.645Z,100189.34
2022-09-18T15:44:44.229Z,100192.69
2022-09-18T15:47:32.812Z,100194.66
2022-09-18T15:50:01.961Z,100210.25
2022-09-18T15:52:36.920Z,100200.31
2022-09-18T15:55:15.772Z,100192.31
2022-09-18T15:57:49.707Z,100210.66
2022-09-18T16:00:18.499Z,100203.63
2022-09-18T16:02:53.376Z,100224.34
2022-09-18T16:05:23.151Z,100229.34
2022-09-18T16:07:56.134Z,100230.69
2022-09-18T16:10:48.958Z,100218.56
2022-09-18T16:13:33.518Z,100225.75
2022-09-18T16:16:24.654Z,100236.78
2022-09-18T16:18:57.200Z,100225.75
2022-09-18T16:21:27.117Z,100230.16
2022-09-18T16:23:59.119Z,100217.34
2022-09-18T16:26:31.184Z,100238.44
2022-09-18T16:29:01.616Z,100230.88
2022-09-18T16:31:31.849Z,100238.47
2022-09-18T16:34:03.272Z,100239.53
2022-09-18T16:36:34.351Z,100240.09
2022-09-18T16:39:04.446Z,100246.03
2022-09-18T16:41:33.679Z,100250.63
2022-09-18T16:44:01.867Z,100244.22
2022-09-18T16:46:34.587Z,100248.91
2022-09-18T16:49:04.373Z,100245.72
2022-09-18T16:51:32.270Z,100259.66
2022-09-18T16:54:00.237Z,100258.13
2022-09-18T16:56:33.862Z,100262.81
2022-09-18T16:59:04.104Z,100262.81
2022-09-18T17:01:48.273Z,100270.97
2022-09-18T17:04:22.256Z,100276.63
2022-09-18T17:06:50.477Z,100282.66
2022-09-18T17:09:18.765Z,100231.34
2022-09-18T17:11:46.756Z,100291.53
2022-09-18T17:14:14.693Z,100297.84
2022-09-18T17:16:44.800Z,100304.44
2022-09-18T17:19:13.433Z,100305.25
2022-09-18T17:21:42.849Z,100316.69
2022-09-18T17:24:11.866Z,100313.38
2022-09-18T17:26:41.541Z,100323.44
2022-09-18T17:29:11.372Z,100330.63
2022-09-18T17:31:39.717Z,100332.72
2022-09-18T17:34:08.445Z,100336.69
2022-09-18T17:36:36.939Z,100344.38
2022-09-18T17:39:06.305Z,100356.06
2022-09-18T17:41:34.755Z,100359.75
2022-09-18T17:44:03.116Z,100366.06
2022-09-18T17:46:31.145Z,100366.28
2022-09-18T17:49:00.577Z,100371.13
2022-09-18T17:51:29.383Z,100373.25
2022-09-18T17:54:00.110Z,100367.19
2022-09-18T17:56:30.896Z,100345.06
2022-09-18T17:59:00.451Z,100372.88
2022-09-18T18:01:29.952Z,100386.25
2022-09-18T18:03:58.514Z,100394.41
2022-09-18T18:06:26.437Z,100391.28
2022-09-18T18:08:56.175Z,100395.88
2022-09-18T18:11:25.718Z,100405.81
2022-09-18T18:13:56.339Z,100398.97
2022-09-18T18:16:27.520Z,100400.59
2022-09-18T18:18:57.626Z,100400.72
2022-09-18T18:21:26.730Z,100411.69
2022-09-18T18:23:57.106Z,100413.91
2022-09-18T18:26:25.313Z,100416.09
2022-09-18T18:28:55.536Z,100414.16
2022-09-18T18:31:25.638Z,100410.84
2022-09-18T18:33:55.216Z,100411.72
2022-09-18T18:36:24.909Z,100429.44
2022-09-18T18:38:54.873Z,100435.41
2022-09-18T18:41:24.449Z,100434.44
2022-09-18T18:43:55.630Z,100434.19
2022-09-18T18:46:25.658Z,100418.88
2022-09-18T18:49:00.095Z,100434.69
2022-09-18T18:51:28.734Z,100441.47
2022-09-18T18:53:57.681Z,100431.56
2022-09-18T18:56:25.657Z,100440.00
2022-09-18T18:58:58.841Z,100440.38
2022-09-18T19:01:27.232Z,100447.97
2022-09-18T19:03:57.646Z,100452.25
2022-09-18T19:06:27.178Z,100453.09
2022-09-18T19:08:59.533Z,100443.94
2022-09-18T19:11:30.102Z,100453.91
2022-09-18T19:14:00.365Z,100453.34
2022-09-18T19:16:29.899Z,100446.78
2022-09-18T19:19:00.470Z,100452.03
2022-09-18T19:21:29.634Z,100445.34
2022-09-18T19:23:59.340Z,100461.03
2022-09-18T19:26:28.877Z,100463.06
2022-09-18T19:28:59.784Z,100456.78
2022-09-18T19:31:28.943Z,100459.50
2022-09-18T19:33:58.071Z,100425.28
2022-09-18T19:36:28.925Z,100470.06
2022-09-18T19:38:58.400Z,100469.34
2022-09-18T19:41:33.258Z,100471.63
2022-09-18T19:44:05.223Z,100471.00
2022-09-18T19:46:33.824Z,100465.53
2022-09-18T19:49:01.879Z,100459.59
2022-09-18T19:51:31.148Z,100470.78
2022-09-18T19:53:59.058Z,100473.00
2022-09-18T19:56:42.211Z,100479.69
2022-09-18T19:59:12.378Z,100474.78
2022-09-18T20:01:40.365Z,100482.78
2022-09-18T20:04:08.293Z,100493.56
2022-09-18T20:06:36.981Z,100496.19
2022-09-18T20:09:05.528Z,100491.44
2022-09-18T20:11:33.454Z,100497.38
2022-09-18T20:14:01.369Z,100496.06
2022-09-18T20:16:30.758Z,100497.25
2022-09-18T20:18:58.749Z,100490.72
2022-09-18T20:21:26.660Z,100498.78
2022-09-18T20:23:58.094Z,100504.03
2022-09-18T20:26:27.109Z,100502.47
2022-09-18T20:28:55.000Z,100492.34
2022-09-18T20:31:23.965Z,100502.09
2022-09-18T20:33:56.589Z,100504.91
2022-09-18T20:36:25.765Z,100504.16
2022-09-18T20:38:58.004Z,100494.69
2022-09-18T20:41:28.193Z,100508.22
2022-09-18T20:43:56.869Z,100507.06
2022-09-18T20:46:27.485Z,100510.03
2022-09-18T20:48:56.826Z,100511.84
2022-09-18T20:51:26.878Z,100517.75
2022-09-18T20:53:57.286Z,100508.72
2022-09-18T20:56:26.493Z,100512.53
2022-09-18T20:58:54.897Z,100508.91
2022-09-18T21:01:25.037Z,100514.38
2022-09-18T21:03:57.235Z,100508.63
2022-09-18T21:06:26.923Z,100522.16
2022-09-18T21:08:56.250Z,100527.84
2022-09-18T21:11:26.018Z,100527.28
2022-09-18T21:13:55.850Z,100516.69
2022-09-18T21:16:26.345Z,100515.09
2022-09-18T21:18:59.123Z,100519.97
2022-09-18T21:21:29.157Z,100518.44
2022-09-18T21:23:58.654Z,100516.28
2022-09-18T21:26:30.639Z,100533.41
2022-09-18T21:29:00.259Z,100531.34
2022-09-18T21:31:28.774Z,100533.25
2022-09-18T21:34:00.352Z,100531.97
2022-09-18T21:36:28.553Z,100529.38
2022-09-18T21:38:56.625Z,100525.19
2022-09-18T21:41:26.269Z,100526.03
2022-09-18T21:43:57.533Z,100519.81
2022-09-18T21:46:25.511Z,100525.66
2022-09-18T21:48:56.803Z,100510.38
2022-09-18T21:51:26.091Z,100523.44
2022-09-18T21:53:54.008Z,100522.84
2022-09-18T21:56:22.082Z,100519.31
2022-09-18T21:58:50.344Z,100513.09
2022-09-18T22:01:21.151Z,100518.63
2022-09-18T22:03:52.318Z,100491.31
2022-09-18T22:06:21.149Z,100518.50
2022-09-18T22:08:54.421Z,100523.81
2022-09-18T22:11:24.756Z,100531.03
2022-09-18T22:13:53.222Z,100532.81
2022-09-18T22:16:22.622Z,100537.91
2022-09-18T22:18:50.621Z,100542.00
2022-09-18T22:21:20.639Z,100546.97
2022-09-18T22:23:54.901Z,100541.22
2022-09-18T22:26:25.028Z,100531.25
2022-09-18T22:28:54.528Z,100532.91
2022-09-18T22:31:22.892Z,100544.06
2022-09-18T22:33:54.965Z,100548.31
2022-09-18T22:36:22.954Z,100549.03
2022-09-18T22:38:51.036Z,100540.19
2022-09-18T22:41:20.954Z,100543.22
2022-09-18T22:43:48.864Z,100541.66
2022-09-18T22:46:18.259Z,100543.03
2022-09-18T22:48:46.385Z,100551.69
2022-09-18T22:51:15.963Z,100550.63
2022-09-18T22:53:49.386Z,100550.63
2022-09-18T22:56:18.237Z,100538.56
2022-09-18T22:58:48.052Z,100544.69
2022-09-18T23:01:18.343Z,100550.22
2022-09-18T23:03:47.906Z,100548.75
2022-09-18T23:06:16.776Z,100541.97
2022-09-18T23:08:46.249Z,100537.06
2022-09-18T23:11:16.604Z,100546.44
2022-09-18T23:13:52.041Z,100531.84
2022-09-18T23:16:22.928Z,100531.03
2022-09-18T23:18:53.238Z,100536.78
2022-09-18T23:21:22.661Z,100539.28
2022-09-18T23:23:51.430Z,100541.38
2022-09-18T23:26:23.309Z,100546.91
2022-09-18T23:28:54.856Z,100550.34
2022-09-18T23:31:24.452Z,100541.06
2022-09-18T23:33:54.125Z,100548.19
2022-09-18T23:36:23.601Z,100545.81
2022-09-18T23:38:55.105Z,100545.19
2022-09-18T23:41:23.783Z,100558.63
2022-09-18T23:43:54.368Z,100557.28
2022-09-18T23:46:23.885Z,100559.59
2022-09-18T23:48:55.804Z,100551.28
2022-09-18T23:51:25.169Z,100559.94
2022-09-18T23:53:53.978Z,100552.22
2022-09-18T23:56:23.546Z,100542.81
2022-09-18T23:58:56.153Z,100554.53
